No particular awareness of the weather is required.   -   There are no Weather-warnings

Nearby METAR Reports

 

LEZL - Sevilla, Spain
Distance from station: ESE 25km
Updated: 23/11/2017 17:00
Clear
Clear
 Wind from calm
Wind: Calm
Temperature: 24°C
Dew Point: 4°C
Humidity: 27%
Barometer: 1018 hPa
Summary: Clear
Visibility: greater than 10 km
2017/11/23 16:00 LEZL 231600Z 00000KT CAVOK 24/04 Q1018 NOSIG
LEMO - Morón, Spain
Distance from station: SE 65km
Updated: 23/11/2017 17:00
Clear
Clear
 Wind from SW
Wind: SW 17 km/h
Temperature: 23°C
Dew Point: 0°C
Humidity: 22%
Barometer: 1018 hPa
Summary: Clear
Visibility: greater than 10 km
2017/11/23 16:00 LEMO 231600Z 22009KT 190V250 CAVOK 23/00 Q1018 NOSIG
LEJR - Jeréz, Spain
Distance from station: S 87km
Updated: 23/11/2017 17:30
Clear
Clear
 Wind from SSW
Wind: SSW 7 km/h
Temperature: 21°C
Dew Point: 4°C
Humidity: 33%
Barometer: 1019 hPa
Summary: Clear
Visibility: greater than 10 km
2017/11/23 16:30 LEJR 231630Z 21004KT CAVOK 21/04 Q1019
 
LERT - Rota, Spain
Distance from station: S 101km
Updated: 23/11/2017 17:00
Clear
Clear
 Wind from SSE
Wind: SSE 11 km/h
Temperature: 19°C
Dew Point: 12°C
Humidity: 64%
Barometer: 1019 hPa
Summary: Clear
Visibility: greater than 10 km
2017/11/23 16:00 LERT 231600Z 16006KT 130V200 CAVOK 19/12 Q1019 NOSIG
LEMG - Málaga, Spain
Distance from station: ESE 178km
Updated: 23/11/2017 17:00
Clear
Clear
 Wind from SE
Wind: SE 11 km/h
Temperature: 17°C
Dew Point: 13°C
Humidity: 77%
Barometer: 1020 hPa
Summary: Clear
Visibility: greater than 10 km
2017/11/23 16:00 LEMG 231600Z 13006KT CAVOK 17/13 Q1020 NOSIG
LEBA - Córdoba, Spain
Distance from station: ENE 123km
Updated: 23/11/2017 17:00
Clear
Clear
 Wind from calm
Wind: Calm
Temperature: 20°C
Dew Point: 3°C
Humidity: 33%
Barometer: 1019 hPa
Summary: Clear
Visibility: greater than 10 km
2017/11/23 16:00 LEBA 231600Z 00000KT CAVOK 20/03 Q1019
 
LEGR - Granada, Spain
Distance from station: E 215km
Updated: 23/11/2017 17:00
Clear
Clear
 Wind from calm
Wind: Calm
Temperature: 21°C
Dew Point: 1°C
Humidity: 27%
Barometer: 1020 hPa
Summary: Clear
Visibility: greater than 10 km
2017/11/23 16:00 LEGR 231600Z 00000KT CAVOK 21/01 Q1020
LEAM - Almería, Spain
Distance from station: E 344km
Updated: 23/11/2017 17:00
Clear
Clear
 Wind from SW
Wind: SW 7 km/h
Temperature: 18°C
Dew Point: 14°C
Humidity: 78%
Barometer: 1020 hPa
Summary: Clear
Visibility: greater than 10 km
2017/11/23 16:00 LEAM 231600Z 22004KT 190V250 CAVOK 18/14 Q1020
GCLP - Las Palmas/Aeropuerto, Spain
Distance from station: SO 1410km
Updated: 23/11/2017 17:00
Clear
Clear
 Wind from SSW
Wind: SSW 15 km/h
Temperature: 25°C
Dew Point: 15°C
Humidity: 54%
Barometer: 1013 hPa
Summary: Clear
Visibility: greater than 10 km
2017/11/23 16:00 GCLP 231600Z 20008KT 170V230 CAVOK 25/15 Q1013 NOSIG
 
LEMD - Madrid/Barajas, Spain
Distance from station: NNE 402km
Updated: 23/11/2017 17:00
Clear
Clear
 Wind from S
Wind: S 7 km/h
Temperature: 17°C
Dew Point: 1°C
Humidity: 34%
Barometer: 1019 hPa
Summary: Clear
Visibility: greater than 10 km
2017/11/23 16:00 LEMD 231600Z 19004KT 140V300 CAVOK 17/01 Q1019 NOSIG
LEVD - Valladolid, Spain
Distance from station: N 492km
Updated: 23/11/2017 17:00
Clear
Clear
 Wind from SW
Wind: SW 22 km/h
Temperature: 16°C
Dew Point: 3°C
Humidity: 42%
Barometer: 1017 hPa
Summary: Clear
Visibility: greater than 10 km
2017/11/23 16:00 LEVD 231600Z 23012KT CAVOK 16/03 Q1017
LEBL - Barcelona, Spain
Distance from station: NE 816km
Updated: 23/11/2017 17:00
Clear
Clear
 Wind from SW
Wind: SW 20 km/h
Temperature: 17°C
Dew Point: 14°C
Humidity: 83%
Barometer: 1017 hPa
Summary: Clear
Visibility: greater than 10 km
2017/11/23 16:00 LEBL 231600Z 23011KT CAVOK 17/14 Q1017 NOSIG